createdAt,value
2023-04-22T09:02:40.499Z,24.82
2023-04-22T09:03:41.667Z,25.11
2023-04-22T09:04:41.185Z,25.30
2023-04-22T09:05:41.209Z,25.76
2023-04-22T09:06:41.196Z,26.03
2023-04-22T09:07:41.505Z,26.18
2023-04-22T09:08:41.161Z,26.08
2023-04-22T09:09:41.338Z,26.03
2023-04-22T09:10:41.157Z,26.01
2023-04-22T09:11:41.139Z,25.59
2023-04-22T09:12:41.224Z,25.55
2023-04-22T09:13:41.137Z,24.74
2023-04-22T09:14:41.100Z,24.40
2023-04-22T09:15:41.070Z,23.56
2023-04-22T09:16:41.082Z,24.04
2023-04-22T09:17:41.083Z,23.81
2023-04-22T09:18:41.039Z,23.77
2023-04-22T09:19:41.399Z,23.89
2023-04-22T09:20:40.993Z,24.19
2023-04-22T09:21:41.076Z,24.34
2023-04-22T09:22:41.201Z,24.75
2023-04-22T09:23:41.047Z,24.82
2023-04-22T09:24:40.958Z,24.79
2023-04-22T09:25:41.121Z,24.89
2023-04-22T09:26:41.205Z,25.24
2023-04-22T09:27:41.086Z,25.73
2023-04-22T09:28:40.880Z,25.86
2023-04-22T09:29:41.469Z,25.93
2023-04-22T09:30:40.901Z,25.68
2023-04-22T09:31:41.037Z,25.25
2023-04-22T09:32:40.961Z,25.29
2023-04-22T09:33:40.857Z,25.30
2023-04-22T09:34:40.925Z,25.19
2023-04-22T09:35:40.828Z,25.01
2023-04-22T09:36:40.924Z,25.16
2023-04-22T09:37:49.286Z,25.15
2023-04-22T09:38:40.797Z,25.54
2023-04-22T09:39:41.075Z,25.73
2023-04-22T09:40:40.843Z,25.70
2023-04-22T09:41:40.723Z,24.86
2023-04-22T09:42:40.708Z,23.79
2023-04-22T09:43:40.812Z,23.70
2023-04-22T09:44:40.673Z,23.59
2023-04-22T09:45:40.678Z,23.69
2023-04-22T09:46:40.661Z,23.69
2023-04-22T09:47:40.804Z,23.91
2023-04-22T09:48:40.682Z,24.59
2023-04-22T09:49:40.958Z,25.36
2023-04-22T09:50:40.594Z,25.73
2023-04-22T09:51:40.605Z,26.24
2023-04-22T09:52:40.555Z,26.64
2023-04-22T09:53:40.534Z,26.55
2023-04-22T09:54:40.617Z,26.56
2023-04-22T09:55:40.554Z,26.44
2023-04-22T09:56:40.526Z,26.41
2023-04-22T09:57:40.520Z,26.33
2023-04-22T09:58:40.568Z,26.30
2023-04-22T09:59:41.132Z,26.04
2023-04-22T10:00:40.643Z,26.34
2023-04-22T10:01:40.586Z,26.30
2023-04-22T10:02:40.657Z,25.73
2023-04-22T10:03:40.784Z,25.95
2023-04-22T10:04:40.407Z,26.23
2023-04-22T10:05:40.433Z,26.34
2023-04-22T10:06:40.446Z,26.71
2023-04-22T10:07:40.435Z,26.98
2023-04-22T10:08:40.559Z,26.85
2023-04-22T10:09:40.720Z,26.78
2023-04-22T10:10:40.557Z,26.07
2023-04-22T10:11:40.512Z,25.36
2023-04-22T10:12:40.277Z,25.30
2023-04-22T10:13:40.410Z,25.49
2023-04-22T10:14:40.592Z,25.51
2023-04-22T10:15:40.294Z,25.67
2023-04-22T10:16:40.340Z,25.68
2023-04-22T10:17:40.535Z,25.78
2023-04-22T10:18:40.245Z,26.06
2023-04-22T10:19:40.682Z,26.22
2023-04-22T10:20:40.198Z,26.19
2023-04-22T10:21:40.405Z,26.10
2023-04-22T10:22:40.152Z,25.80
2023-04-22T10:23:40.244Z,25.56
2023-04-22T10:24:40.248Z,25.54
2023-04-22T10:25:40.123Z,25.67
2023-04-22T10:26:40.277Z,25.71
2023-04-22T10:27:40.118Z,25.62
2023-04-22T10:28:40.106Z,25.80
2023-04-22T10:29:40.487Z,26.29
2023-04-22T10:30:40.062Z,26.34
2023-04-22T10:31:40.070Z,26.16
2023-04-22T10:32:40.086Z,26.13
2023-04-22T10:33:40.145Z,26.07
2023-04-22T10:34:40.313Z,25.93
2023-04-22T10:35:40.263Z,26.08
2023-04-22T10:36:40.004Z,25.85
2023-04-22T10:37:39.975Z,26.24
2023-04-22T10:38:39.945Z,25.98
2023-04-22T10:39:40.215Z,26.01
2023-04-22T10:40:39.946Z,25.24
2023-04-22T10:41:39.930Z,24.82
2023-04-22T10:42:39.912Z,25.03
2023-04-22T10:43:40.106Z,25.18
2023-04-22T10:44:39.914Z,25.41
2023-04-22T10:45:39.939Z,25.74
2023-04-22T10:46:40.177Z,26.07
2023-04-22T10:47:40.200Z,26.41
2023-04-22T10:48:39.943Z,26.18
2023-04-22T10:49:40.129Z,26.44
2023-04-22T10:50:39.969Z,26.93
2023-04-22T10:51:39.783Z,27.07
2023-04-22T10:52:39.782Z,26.63
2023-04-22T10:53:39.771Z,26.30
2023-04-22T10:54:39.948Z,26.71
2023-04-22T10:55:39.846Z,27.18
2023-04-22T10:56:45.592Z,27.41
2023-04-22T10:57:39.760Z,27.73
2023-04-22T10:58:39.916Z,27.73
2023-04-22T10:59:39.921Z,27.71
2023-04-22T11:00:52.252Z,27.16
2023-04-22T11:01:39.762Z,26.74
2023-04-22T11:02:39.722Z,26.53
2023-04-22T11:03:39.910Z,26.33
2023-04-22T11:04:39.624Z,26.46
2023-04-22T11:05:39.756Z,26.49
2023-04-22T11:06:39.786Z,26.70
2023-04-22T11:07:39.800Z,26.78
2023-04-22T11:08:39.596Z,27.05
2023-04-22T11:09:39.794Z,26.93
2023-04-22T11:10:41.463Z,26.86
2023-04-22T11:11:39.759Z,26.74
2023-04-22T11:12:39.711Z,27.03
2023-04-22T11:13:39.779Z,26.76
2023-04-22T11:14:39.596Z,27.10
2023-04-22T11:15:39.536Z,27.13
2023-04-22T11:16:39.508Z,26.70
2023-04-22T11:17:39.471Z,26.70
2023-04-22T11:18:39.534Z,26.78
2023-04-22T11:19:39.676Z,26.71
2023-04-22T11:20:39.634Z,27.00
2023-04-22T11:21:39.449Z,27.30
2023-04-22T11:22:39.598Z,27.13
2023-04-22T11:23:39.393Z,26.92
2023-04-22T11:24:39.699Z,26.51
2023-04-22T11:25:39.482Z,26.56
2023-04-22T11:26:39.350Z,26.67
2023-04-22T11:27:39.322Z,26.64
2023-04-22T11:28:39.315Z,27.01
2023-04-22T11:29:39.531Z,27.08
2023-04-22T11:30:39.375Z,26.88
2023-04-22T11:31:39.511Z,26.71
2023-04-22T11:32:39.440Z,26.59
2023-04-22T11:33:39.236Z,26.81
2023-04-22T11:34:39.275Z,26.67
2023-04-22T11:35:39.452Z,26.23
2023-04-22T11:36:39.459Z,26.19
2023-04-22T11:37:39.191Z,26.16
2023-04-22T11:38:39.321Z,26.13
2023-04-22T11:39:50.232Z,26.29
2023-04-22T11:40:41.313Z,26.34
2023-04-22T11:41:39.142Z,26.29
2023-04-22T11:42:39.460Z,26.48
2023-04-22T11:43:39.142Z,26.68
2023-04-22T11:44:39.315Z,26.81
2023-04-22T11:45:39.234Z,26.60
2023-04-22T11:46:39.456Z,26.29
2023-04-22T11:47:39.092Z,26.29
2023-04-22T11:48:39.375Z,26.41
2023-04-22T11:49:39.376Z,26.34
2023-04-22T11:50:39.013Z,26.37
2023-04-22T11:51:39.137Z,26.42
2023-04-22T11:52:38.998Z,26.33
2023-04-22T11:53:39.079Z,26.23
2023-04-22T11:54:39.010Z,26.23
2023-04-22T11:55:38.909Z,26.34
2023-04-22T11:56:39.008Z,26.37
2023-04-22T11:57:38.905Z,26.44
2023-04-22T11:58:38.926Z,26.45
2023-04-22T11:59:39.109Z,26.04
2023-04-22T12:00:39.023Z,25.66
2023-04-22T12:01:38.863Z,25.14
2023-04-22T12:02:38.910Z,24.77
2023-04-22T12:03:39.032Z,24.41
2023-04-22T12:04:38.850Z,23.95
2023-04-22T12:05:38.862Z,23.29
2023-04-22T12:06:38.759Z,22.98
2023-04-22T12:07:38.767Z,22.84
2023-04-22T12:08:39.077Z,22.77
2023-04-22T12:09:38.993Z,22.73
2023-04-22T12:10:39.068Z,22.73
2023-04-22T12:11:38.795Z,22.77
2023-04-22T12:12:39.003Z,22.74
2023-04-22T12:13:38.799Z,22.49
2023-04-22T12:14:38.670Z,22.36
2023-04-22T12:15:38.672Z,22.31
2023-04-22T12:16:38.718Z,22.31
2023-04-22T12:17:38.657Z,22.41
2023-04-22T12:18:38.676Z,22.52
2023-04-22T12:19:39.056Z,22.22
2023-04-22T12:20:38.670Z,22.16
2023-04-22T12:21:38.593Z,22.12
2023-04-22T12:22:38.718Z,22.12
2023-04-22T12:23:38.568Z,22.07
2023-04-22T12:24:38.668Z,22.16
2023-04-22T12:25:38.572Z,22.25
2023-04-22T12:26:38.650Z,22.33
2023-04-22T12:27:38.523Z,22.40
2023-04-22T12:28:38.731Z,22.34
2023-04-22T12:29:38.681Z,22.22
2023-04-22T12:30:38.481Z,22.15
2023-04-22T12:31:38.534Z,22.18
2023-04-22T12:32:38.431Z,22.25
2023-04-22T12:33:38.604Z,22.37
2023-04-22T12:34:38.723Z,21.99
2023-04-22T12:35:38.525Z,21.94
2023-04-22T12:36:38.368Z,22.04
2023-04-22T12:37:38.344Z,22.08
2023-04-22T12:38:38.320Z,22.12
2023-04-22T12:39:38.622Z,22.18
2023-04-22T12:40:38.347Z,22.21
2023-04-22T12:41:38.486Z,22.22
2023-04-22T12:42:38.355Z,22.19
2023-04-22T12:43:38.477Z,22.22
2023-04-22T12:44:38.326Z,22.23
2023-04-22T12:45:38.597Z,22.23
2023-04-22T12:46:38.386Z,22.30
2023-04-22T12:47:38.566Z,22.33
2023-04-22T12:48:38.349Z,22.40
2023-04-22T12:49:38.529Z,22.43
2023-04-22T12:50:38.344Z,22.33
2023-04-22T12:51:38.279Z,22.25
2023-04-22T12:52:38.366Z,22.10
2023-04-22T12:53:38.211Z,22.07
2023-04-22T12:54:38.161Z,22.14
2023-04-22T12:55:38.218Z,22.18
2023-04-22T12:56:38.126Z,22.15
2023-04-22T12:57:38.185Z,22.06
2023-04-22T12:58:38.343Z,22.06
2023-04-22T12:59:38.423Z,21.99
2023-04-22T13:00:38.352Z,22.03
2023-04-22T13:01:38.064Z,22.15
2023-04-22T13:02:38.286Z,22.16
2023-04-22T13:03:38.383Z,22.18
2023-04-22T13:04:38.164Z,21.94
2023-04-22T13:05:38.188Z,21.83
2023-04-22T13:06:37.999Z,21.88
2023-04-22T13:07:37.971Z,21.92
2023-04-22T13:08:38.024Z,22.00
2023-04-22T13:09:38.270Z,22.06
2023-04-22T13:10:38.033Z,22.15
2023-04-22T13:11:38.199Z,22.22
2023-04-22T13:12:38.638Z,22.30
2023-04-22T13:13:37.885Z,22.19
2023-04-22T13:14:38.102Z,22.23
2023-04-22T13:15:37.863Z,22.23
2023-04-22T13:16:38.042Z,22.19
2023-04-22T13:17:37.850Z,22.15
2023-04-22T13:18:37.826Z,22.12
2023-04-22T13:19:37.987Z,22.16
2023-04-22T13:20:38.076Z,22.10
2023-04-22T13:21:37.812Z,22.06
2023-04-22T13:22:37.855Z,22.04
2023-04-22T13:23:37.844Z,22.06
2023-04-22T13:24:37.718Z,22.01
2023-04-22T13:25:37.840Z,22.01
2023-04-22T13:26:37.811Z,22.07
2023-04-22T13:27:37.693Z,22.15
2023-04-22T13:28:37.681Z,22.12
2023-04-22T13:29:37.806Z,22.00
2023-04-22T13:30:37.684Z,21.94
2023-04-22T13:31:37.753Z,21.89
2023-04-22T13:32:37.697Z,21.94
2023-04-22T13:33:37.574Z,21.89
2023-04-22T13:34:37.608Z,21.77
2023-04-22T13:35:37.537Z,21.84
2023-04-22T13:36:37.556Z,21.91
2023-04-22T13:37:37.629Z,21.96
2023-04-22T13:38:37.677Z,22.03
2023-04-22T13:39:37.606Z,22.03
2023-04-22T13:40:37.509Z,22.07
2023-04-22T13:41:37.546Z,22.10
2023-04-22T13:42:37.861Z,22.10
2023-04-22T13:43:37.535Z,22.06
2023-04-22T13:44:37.447Z,22.07
2023-04-22T13:45:37.643Z,22.07
2023-04-22T13:46:37.398Z,22.01
2023-04-22T13:47:37.711Z,22.01
2023-04-22T13:48:37.738Z,21.96
2023-04-22T13:49:37.796Z,22.03
2023-04-22T13:50:37.358Z,22.08
2023-04-22T13:51:37.366Z,22.10
2023-04-22T13:52:37.372Z,22.10
2023-04-22T13:53:37.412Z,22.08
2023-04-22T13:54:37.373Z,22.06
2023-04-22T13:55:37.532Z,22.01
2023-04-22T13:56:37.383Z,22.00
2023-04-22T13:57:37.293Z,21.96
2023-04-22T13:58:37.370Z,21.88
2023-04-22T13:59:37.686Z,21.88
2023-04-22T14:00:37.380Z,21.89
2023-04-22T14:01:37.267Z,21.92
2023-04-22T14:02:37.390Z,21.89
2023-04-22T14:03:37.280Z,21.85
2023-04-22T14:04:37.359Z,21.85
2023-04-22T14:05:37.290Z,21.84
2023-04-22T14:06:37.388Z,21.89
2023-04-22T14:07:37.201Z,21.99
2023-04-22T14:08:37.166Z,22.03
2023-04-22T14:09:37.242Z,21.99
2023-04-22T14:10:37.487Z,21.92
2023-04-22T14:11:37.125Z,21.78
2023-04-22T14:12:37.065Z,21.69
2023-04-22T14:13:37.063Z,21.68
2023-04-22T14:14:37.045Z,21.66
2023-04-22T14:15:37.014Z,21.72
2023-04-22T14:16:37.184Z,21.72
2023-04-22T14:17:37.232Z,21.72
2023-04-22T14:18:37.064Z,21.78
2023-04-22T14:19:37.205Z,21.80
2023-04-22T14:20:37.038Z,21.80
2023-04-22T14:21:37.284Z,21.78
2023-04-22T14:22:37.222Z,21.80
2023-04-22T14:23:36.978Z,21.66
2023-04-22T14:24:36.908Z,21.68
2023-04-22T14:25:36.928Z,21.74
2023-04-22T14:26:36.915Z,21.83
2023-04-22T14:27:36.913Z,21.91
2023-04-22T14:28:37.047Z,21.96
2023-04-22T14:29:36.927Z,21.99
2023-04-22T14:30:37.063Z,22.00
2023-04-22T14:31:36.869Z,21.96
2023-04-22T14:32:36.878Z,21.91
2023-04-22T14:33:36.899Z,21.88
2023-04-22T14:34:36.779Z,21.83
2023-04-22T14:35:36.887Z,21.83
2023-04-22T14:36:36.908Z,21.83
2023-04-22T14:37:36.762Z,21.75
2023-04-22T14:38:36.814Z,21.69
2023-04-22T14:39:36.695Z,21.62
2023-04-22T14:40:36.744Z,21.54
2023-04-22T14:41:36.936Z,21.50
2023-04-22T14:42:36.688Z,21.50
2023-04-22T14:43:36.916Z,21.58
2023-04-22T14:44:36.820Z,21.62
2023-04-22T14:45:36.640Z,21.68
2023-04-22T14:46:36.744Z,21.72
2023-04-22T14:47:36.723Z,21.78
2023-04-22T14:48:36.578Z,21.81
2023-04-22T14:49:36.737Z,21.91
2023-04-22T14:50:36.580Z,21.91
2023-04-22T14:51:36.795Z,21.83
2023-04-22T14:52:36.591Z,21.83
2023-04-22T14:53:36.574Z,21.80
2023-04-22T14:54:36.473Z,21.72
2023-04-22T14:55:36.682Z,21.66
2023-04-22T14:56:36.570Z,21.66
2023-04-22T14:57:36.566Z,21.65
2023-04-22T14:58:36.422Z,21.68
2023-04-22T14:59:36.556Z,21.66
2023-04-22T15:00:36.437Z,21.60
2023-04-22T15:01:36.507Z,21.58
2023-04-22T15:02:36.476Z,21.58
2023-04-22T15:03:36.548Z,21.65
2023-04-22T15:04:36.419Z,21.65
2023-04-22T15:05:36.360Z,21.63
2023-04-22T15:06:36.583Z,21.60
2023-04-22T15:07:36.421Z,21.63
2023-04-22T15:08:36.308Z,21.62
2023-04-22T15:09:36.300Z,21.60
2023-04-22T15:10:36.406Z,21.60
2023-04-22T15:11:36.259Z,21.62
2023-04-22T15:12:36.401Z,21.65
2023-04-22T15:13:36.342Z,21.69
2023-04-22T15:14:36.256Z,21.72
2023-04-22T15:15:36.259Z,21.74
2023-04-22T15:16:36.256Z,21.77
2023-04-22T15:17:36.309Z,21.81
2023-04-22T15:18:36.468Z,21.80
2023-04-22T15:19:36.224Z,21.77
2023-04-22T15:20:36.392Z,21.77
2023-04-22T15:21:36.150Z,21.72
2023-04-22T15:22:36.111Z,21.70
2023-04-22T15:23:36.241Z,21.65
2023-04-22T15:24:36.184Z,21.58
2023-04-22T15:25:36.247Z,21.51
2023-04-22T15:26:36.103Z,21.45
2023-04-22T15:27:36.255Z,21.43
2023-04-22T15:28:36.073Z,21.44
2023-04-22T15:29:36.027Z,21.41
2023-04-22T15:30:36.178Z,21.38
2023-04-22T15:31:36.255Z,21.35
2023-04-22T15:32:36.102Z,21.35
2023-04-22T15:33:36.261Z,21.33
2023-04-22T15:34:36.080Z,21.28
2023-04-22T15:35:36.262Z,21.26
2023-04-22T15:36:36.041Z,21.29
2023-04-22T15:37:35.945Z,21.28
2023-04-22T15:38:36.100Z,21.28
2023-04-22T15:39:35.950Z,21.29
2023-04-22T15:40:35.888Z,21.26
2023-04-22T15:41:35.940Z,21.25
2023-04-22T15:42:36.188Z,21.23
2023-04-22T15:43:35.923Z,21.23
2023-04-22T15:44:35.847Z,21.26
2023-04-22T15:45:35.938Z,21.25
2023-04-22T15:46:36.133Z,21.29
2023-04-22T15:47:35.818Z,21.30
2023-04-22T15:48:35.843Z,21.32
2023-04-22T15:49:35.768Z,21.33
2023-04-22T15:50:36.493Z,21.33
2023-04-22T15:51:35.758Z,21.32
2023-04-22T15:52:35.761Z,21.26
2023-04-22T15:53:35.996Z,21.26
2023-04-22T15:54:35.763Z,21.25
2023-04-22T15:55:35.673Z,21.23
2023-04-22T15:56:35.938Z,21.22
2023-04-22T15:57:35.949Z,21.22
2023-04-22T15:58:35.799Z,21.20
2023-04-22T15:59:35.729Z,21.20
2023-04-22T16:00:35.628Z,21.17
2023-04-22T16:01:35.672Z,21.17
2023-04-22T16:02:35.803Z,21.17
2023-04-22T16:03:35.815Z,21.14
2023-04-22T16:04:35.605Z,21.10
2023-04-22T16:05:35.681Z,21.05
2023-04-22T16:06:35.758Z,21.00
2023-04-22T16:07:35.682Z,20.92
2023-04-22T16:08:35.570Z,20.86
2023-04-22T16:09:35.588Z,20.80
2023-04-22T16:10:35.503Z,20.78
2023-04-22T16:11:35.706Z,20.71
2023-04-22T16:12:35.518Z,20.66
2023-04-22T16:13:35.422Z,20.59
2023-04-22T16:14:35.506Z,20.58
2023-04-22T16:15:35.838Z,20.53
2023-04-22T16:16:35.518Z,20.53
2023-04-22T16:17:35.504Z,20.53
2023-04-22T16:18:35.389Z,20.46
2023-04-22T16:19:35.646Z,20.46
2023-04-22T16:20:35.442Z,20.39
2023-04-22T16:21:35.678Z,20.37
2023-04-22T16:22:35.447Z,20.36
2023-04-22T16:23:35.462Z,20.37
2023-04-22T16:24:35.442Z,20.37
2023-04-22T16:25:35.247Z,20.37
2023-04-22T16:26:35.440Z,20.36
2023-04-22T16:27:35.264Z,20.33
2023-04-22T16:28:35.224Z,20.33
2023-04-22T16:29:35.459Z,20.30
2023-04-22T16:30:35.462Z,20.26
2023-04-22T16:31:35.199Z,20.24
2023-04-22T16:32:35.359Z,20.21
2023-04-22T16:33:35.318Z,20.19
2023-04-22T16:34:35.164Z,20.17
2023-04-22T16:35:35.368Z,20.12
2023-04-22T16:36:35.108Z,20.11
2023-04-22T16:37:35.183Z,20.11
2023-04-22T16:38:35.115Z,20.11
2023-04-22T16:39:35.138Z,20.08
2023-04-22T16:40:35.057Z,20.03
2023-04-22T16:41:35.122Z,19.99
2023-04-22T16:42:35.038Z,19.94
2023-04-22T16:43:35.042Z,19.89
2023-04-22T16:44:35.018Z,19.81
2023-04-22T16:45:35.204Z,19.78
2023-04-22T16:46:35.087Z,19.77
2023-04-22T16:47:35.069Z,19.71
2023-04-22T16:48:34.952Z,19.67
2023-04-22T16:49:34.957Z,19.63
2023-04-22T16:50:34.928Z,19.57
2023-04-22T16:51:34.897Z,19.56
2023-04-22T16:52:35.246Z,19.57
2023-04-22T16:53:34.945Z,19.56
2023-04-22T16:54:35.298Z,19.55
2023-04-22T16:55:36.881Z,19.49
2023-04-22T16:56:34.901Z,19.44
2023-04-22T16:57:34.861Z,19.38
2023-04-22T16:58:34.877Z,19.34
2023-04-22T16:59:34.830Z,19.30
2023-04-22T17:00:34.795Z,19.27
2023-04-22T17:01:34.803Z,19.23
2023-04-22T17:02:34.941Z,19.24
2023-04-22T17:03:34.901Z,19.24
2023-04-22T17:04:34.918Z,19.22
2023-04-22T17:05:34.950Z,19.16
2023-04-22T17:06:34.806Z,19.09
2023-04-22T17:07:34.719Z,19.09
2023-04-22T17:08:34.788Z,19.09
2023-04-22T17:09:34.667Z,19.09
2023-04-22T17:10:34.705Z,19.09
2023-04-22T17:11:34.666Z,19.11
2023-04-22T17:12:34.825Z,19.08
2023-04-22T17:13:34.644Z,19.04
2023-04-22T17:14:34.804Z,18.97
2023-04-22T17:15:34.801Z,18.91
2023-04-22T17:16:34.581Z,18.82
2023-04-22T17:17:34.664Z,18.73
2023-04-22T17:18:34.565Z,18.66
2023-04-22T17:19:34.676Z,18.55
2023-04-22T17:20:34.539Z,18.45
2023-04-22T17:21:34.743Z,18.34
2023-04-22T17:22:34.823Z,18.37
2023-04-22T17:23:34.648Z,18.34
2023-04-22T17:24:34.499Z,18.37
2023-04-22T17:25:34.469Z,18.39
2023-04-22T17:26:34.512Z,18.39
2023-04-22T17:27:34.525Z,18.37
2023-04-22T17:28:34.481Z,18.41
2023-04-22T17:29:34.484Z,18.37
2023-04-22T17:30:34.475Z,18.37
2023-04-22T17:31:34.716Z,18.30
2023-04-22T17:32:34.511Z,18.21
2023-04-22T17:33:34.406Z,18.11
2023-04-22T17:34:34.477Z,18.02
2023-04-22T17:35:34.334Z,17.87
2023-04-22T17:36:34.489Z,17.75
2023-04-22T17:37:34.329Z,17.60
2023-04-22T17:38:34.512Z,17.41
2023-04-22T17:39:34.419Z,17.30
2023-04-22T17:40:34.248Z,17.17
2023-04-22T17:41:34.374Z,17.04
2023-04-22T17:42:44.630Z,16.91
2023-04-22T17:43:34.353Z,16.84
2023-04-22T17:44:34.256Z,16.74
2023-04-22T17:45:34.276Z,16.66
2023-04-22T17:46:34.209Z,16.58
2023-04-22T17:47:34.390Z,16.46
2023-04-22T17:48:34.167Z,16.37
2023-04-22T17:49:34.135Z,16.28
2023-04-22T17:50:34.210Z,16.22
2023-04-22T17:51:34.166Z,16.10
2023-04-22T17:52:34.191Z,16.03
2023-04-22T17:53:34.103Z,15.92
2023-04-22T17:54:34.211Z,15.88
2023-04-22T17:55:34.045Z,15.83
2023-04-22T17:56:34.150Z,15.75
2023-04-22T17:57:34.129Z,15.69
2023-04-22T17:58:34.210Z,15.59
2023-04-22T17:59:34.039Z,15.52
2023-04-22T18:00:34.022Z,15.44
2023-04-22T18:01:34.038Z,15.39
2023-04-22T18:02:34.343Z,15.32
2023-04-22T18:03:34.217Z,15.26
2023-04-22T18:04:34.027Z,15.17
2023-04-22T18:05:34.000Z,15.14
2023-04-22T18:06:33.936Z,15.12
2023-04-22T18:07:33.864Z,15.07
2023-04-22T18:08:33.914Z,15.05
2023-04-22T18:09:34.178Z,14.99
2023-04-22T18:10:34.027Z,14.94
2023-04-22T18:11:33.840Z,14.92
2023-04-22T18:12:33.880Z,14.87
2023-04-22T18:13:33.800Z,14.85
2023-04-22T18:14:34.029Z,14.81
2023-04-22T18:15:33.893Z,14.77
2023-04-22T18:16:33.856Z,14.70
2023-04-22T18:17:33.791Z,14.70
2023-04-22T18:18:33.882Z,14.66
2023-04-22T18:19:33.715Z,14.59
2023-04-22T18:20:33.908Z,14.53
2023-04-22T18:21:33.755Z,14.51
2023-04-22T18:22:33.709Z,14.45
2023-04-22T18:23:33.673Z,14.37
2023-04-22T18:24:33.697Z,14.33
2023-04-22T18:25:33.661Z,14.30
2023-04-22T18:26:34.019Z,14.28
2023-04-22T18:27:33.719Z,14.23
2023-04-22T18:28:33.601Z,14.20
2023-04-22T18:29:33.580Z,14.16
2023-04-22T18:30:33.593Z,14.13
2023-04-22T18:31:33.613Z,14.11
2023-04-22T18:32:33.623Z,14.08
2023-04-22T18:33:33.579Z,14.05
2023-04-22T18:34:33.755Z,14.04
2023-04-22T18:35:33.694Z,14.01
2023-04-22T18:36:33.514Z,13.94
2023-04-22T18:37:33.781Z,13.91
2023-04-22T18:38:33.512Z,13.94
2023-04-22T18:39:33.504Z,13.93
2023-04-22T18:40:33.432Z,13.91
2023-04-22T18:41:33.419Z,13.87
2023-04-22T18:42:33.535Z,13.85
2023-04-22T18:43:33.509Z,13.82
2023-04-22T18:44:33.518Z,13.80
2023-04-22T18:45:33.444Z,13.76
2023-04-22T18:46:33.377Z,13.73
2023-04-22T18:47:33.428Z,13.71
2023-04-22T18:48:33.708Z,13.71
2023-04-22T18:49:33.593Z,13.67
2023-04-22T18:50:33.507Z,13.71
2023-04-22T18:51:33.443Z,13.68
2023-04-22T18:52:33.381Z,13.70
2023-04-22T18:53:33.528Z,13.68
2023-04-22T18:54:33.383Z,13.68
2023-04-22T18:55:33.872Z,13.71
2023-04-22T18:56:33.226Z,13.80
2023-04-22T18:57:33.244Z,13.82
2023-04-22T18:58:33.159Z,13.75
2023-04-22T18:59:33.284Z,13.68
2023-04-22T19:00:33.226Z,13.65
2023-04-22T19:01:33.185Z,13.62
2023-04-22T19:02:34.591Z,13.58
2023-04-22T19:03:33.373Z,13.55
2023-04-22T19:04:33.324Z,13.52
2023-04-22T19:05:33.233Z,13.49
2023-04-22T19:06:33.059Z,13.45
2023-04-22T19:07:33.121Z,13.39
2023-04-22T19:08:33.071Z,13.31
2023-04-22T19:09:33.033Z,13.26
2023-04-22T19:10:33.169Z,13.21
2023-04-22T19:11:33.036Z,13.19
2023-04-22T19:12:32.980Z,13.12
2023-04-22T19:13:33.086Z,13.08
2023-04-22T19:14:33.060Z,13.09
2023-04-22T19:15:33.080Z,13.06
2023-04-22T19:16:33.029Z,13.03
2023-04-22T19:17:33.052Z,13.05
2023-04-22T19:18:33.206Z,13.02
2023-04-22T19:19:33.035Z,12.99
2023-04-22T19:20:33.076Z,12.94
2023-04-22T19:21:32.905Z,12.91
2023-04-22T19:22:33.174Z,12.87
2023-04-22T19:23:33.096Z,12.83
2023-04-22T19:24:32.877Z,12.83
2023-04-22T19:25:32.901Z,12.78
2023-04-22T19:26:32.810Z,12.75
2023-04-22T19:27:32.860Z,12.70
2023-04-22T19:28:33.052Z,12.70
2023-04-22T19:29:32.749Z,12.69
2023-04-22T19:30:32.916Z,12.68
2023-04-22T19:31:32.765Z,12.62
2023-04-22T19:32:32.946Z,12.55
2023-04-22T19:33:32.808Z,12.54
2023-04-22T19:34:32.953Z,12.53
2023-04-22T19:35:32.736Z,12.50
2023-04-22T19:36:32.938Z,12.45
2023-04-22T19:37:32.714Z,12.40
2023-04-22T19:38:32.867Z,12.36
2023-04-22T19:39:32.697Z,12.30
2023-04-22T19:40:32.639Z,12.26
2023-04-22T19:41:32.731Z,12.20
2023-04-22T19:42:32.596Z,12.18
2023-04-22T19:43:32.591Z,12.12
2023-04-22T19:44:32.559Z,12.10
2023-04-22T19:45:32.631Z,12.08
2023-04-22T19:46:32.522Z,12.11
2023-04-22T19:47:32.546Z,12.12
2023-04-22T19:48:32.518Z,12.05
2023-04-22T19:49:32.507Z,12.07
2023-04-22T19:50:32.469Z,12.11
2023-04-22T19:51:32.594Z,12.08
2023-04-22T19:52:32.417Z,12.10
2023-04-22T19:53:32.467Z,12.10
2023-04-22T19:54:32.438Z,12.11
2023-04-22T19:55:32.498Z,12.11
2023-04-22T19:56:32.418Z,12.10
2023-04-22T19:57:32.481Z,12.05
2023-04-22T19:58:32.604Z,12.07
2023-04-22T19:59:32.400Z,12.07
2023-04-22T20:00:32.555Z,12.05
2023-04-22T20:01:32.447Z,12.07
2023-04-22T20:02:32.616Z,12.05
2023-04-22T20:03:32.641Z,12.02
2023-04-22T20:04:32.449Z,11.97
2023-04-22T20:05:32.396Z,11.93
2023-04-22T20:06:32.268Z,11.91
2023-04-22T20:07:32.429Z,11.89
2023-04-22T20:08:32.418Z,11.86
2023-04-22T20:09:32.486Z,11.83
2023-04-22T20:10:32.235Z,11.78
2023-04-22T20:11:32.378Z,11.76
2023-04-22T20:12:32.252Z,11.73
2023-04-22T20:13:32.405Z,11.71
2023-04-22T20:14:32.232Z,11.65
2023-04-22T20:15:32.470Z,11.62
2023-04-22T20:16:32.197Z,11.58
2023-04-22T20:17:32.431Z,11.52
2023-04-22T20:18:32.430Z,11.48
2023-04-22T20:19:32.399Z,11.48
2023-04-22T20:20:32.328Z,11.45
2023-04-22T20:21:32.080Z,11.45
2023-04-22T20:22:32.102Z,11.45
2023-04-22T20:23:32.043Z,11.44
2023-04-22T20:24:32.229Z,11.41
2023-04-22T20:25:32.049Z,11.40
2023-04-22T20:26:32.050Z,11.40
2023-04-22T20:27:31.968Z,11.34
2023-04-22T20:28:32.052Z,11.31
2023-04-22T20:29:31.979Z,11.25
2023-04-22T20:30:31.957Z,11.26
2023-04-22T20:31:32.096Z,11.25
2023-04-22T20:32:31.996Z,11.20
2023-04-22T20:33:31.906Z,11.22
2023-04-22T20:34:31.913Z,11.18
2023-04-22T20:35:31.863Z,11.16
2023-04-22T20:36:31.917Z,11.15
2023-04-22T20:37:31.972Z,11.13
2023-04-22T20:38:31.874Z,11.08
2023-04-22T20:39:31.820Z,11.08
2023-04-22T20:40:31.831Z,11.05
2023-04-22T20:41:31.775Z,11.05
2023-04-22T20:42:31.912Z,11.05
2023-04-22T20:43:31.855Z,11.07
2023-04-22T20:44:31.891Z,11.07
2023-04-22T20:45:31.780Z,11.08
2023-04-22T20:46:31.803Z,11.07
2023-04-22T20:47:31.770Z,11.05
2023-04-22T20:48:31.777Z,11.05
2023-04-22T20:49:31.709Z,11.02
2023-04-22T20:50:31.696Z,11.01
2023-04-22T20:51:31.754Z,11.01
2023-04-22T20:52:31.688Z,10.98
2023-04-22T20:53:31.734Z,11.00
2023-04-22T20:54:31.692Z,11.00
2023-04-22T20:55:31.804Z,10.97
2023-04-22T20:56:31.622Z,10.95
2023-04-22T20:57:31.574Z,10.95
2023-04-22T20:58:31.621Z,10.95
2023-04-22T20:59:31.635Z,10.95
2023-04-22T21:00:31.582Z,10.94
2023-04-22T21:01:31.591Z,10.94
2023-04-22T21:02:31.676Z,10.94
2023-04-22T21:03:31.730Z,10.90
2023-04-22T21:04:31.650Z,10.94
2023-04-22T21:05:31.539Z,10.92
2023-04-22T21:06:31.627Z,10.92
2023-04-22T21:07:31.478Z,10.92
2023-04-22T21:08:31.429Z,10.92
2023-04-22T21:09:31.456Z,10.90
2023-04-22T21:10:31.587Z,10.87
2023-04-22T21:11:31.539Z,10.87
2023-04-22T21:12:31.375Z,10.87
2023-04-22T21:13:31.384Z,10.86
2023-04-22T21:14:31.596Z,10.86
2023-04-22T21:15:31.448Z,10.87
2023-04-22T21:16:31.322Z,10.84
2023-04-22T21:17:31.723Z,10.83
2023-04-22T21:18:31.285Z,10.79
2023-04-22T21:19:31.296Z,10.77
2023-04-22T21:20:31.291Z,10.79
2023-04-22T21:21:31.262Z,10.77
2023-04-22T21:22:31.355Z,10.79
2023-04-22T21:23:31.279Z,10.76
2023-04-22T21:24:31.217Z,10.77
2023-04-22T21:25:31.622Z,10.76
2023-04-22T21:26:31.271Z,10.75
2023-04-22T21:27:31.170Z,10.75
2023-04-22T21:28:31.208Z,10.72
2023-04-22T21:29:31.129Z,10.72
2023-04-22T21:30:31.136Z,10.71
2023-04-22T21:31:31.135Z,10.72
2023-04-22T21:32:31.102Z,10.72
2023-04-22T21:33:31.135Z,10.75
2023-04-22T21:34:31.046Z,10.69
2023-04-22T21:35:31.142Z,10.68
2023-04-22T21:36:31.042Z,10.67
2023-04-22T21:37:31.019Z,10.67
2023-04-22T21:38:31.052Z,10.69
2023-04-22T21:39:31.406Z,10.69
2023-04-22T21:40:30.950Z,10.71
2023-04-22T21:41:30.955Z,10.72
2023-04-22T21:42:30.951Z,10.75
2023-04-22T21:43:30.911Z,10.77
2023-04-22T21:44:30.980Z,10.77
2023-04-22T21:45:31.239Z,10.79
2023-04-22T21:46:30.895Z,10.76
2023-04-22T21:47:31.203Z,10.79
2023-04-22T21:48:30.950Z,10.79
2023-04-22T21:49:31.175Z,10.76
2023-04-22T21:50:30.957Z,10.75
2023-04-22T21:51:30.865Z,10.75
2023-04-22T21:52:30.789Z,10.72
2023-04-22T21:53:30.844Z,10.71
2023-04-22T21:54:30.767Z,10.69